createdAt,value
2023-02-11T00:03:57.709Z,0
2023-02-11T00:08:56.807Z,0
2023-02-11T00:13:56.178Z,0
2023-02-11T00:18:55.366Z,0
2023-02-11T00:24:00.759Z,0
2023-02-11T00:28:55.232Z,0
2023-02-11T00:33:54.536Z,0
2023-02-11T00:38:52.944Z,0
2023-02-11T00:43:52.981Z,0
2023-02-11T00:48:52.115Z,0
2023-02-11T00:53:51.761Z,0
2023-02-11T00:58:51.099Z,0
2023-02-11T01:03:50.806Z,0
2023-02-11T01:08:50.848Z,0
2023-02-11T01:13:50.975Z,0
2023-02-11T01:18:52.495Z,0
2023-02-11T01:23:48.192Z,0
2023-02-11T01:28:48.179Z,0
2023-02-11T01:33:47.371Z,0
2023-02-11T01:38:47.821Z,0
2023-02-11T01:43:45.095Z,0
2023-02-11T01:48:45.253Z,0
2023-02-11T01:53:44.076Z,0
2023-02-11T01:58:43.944Z,0
2023-02-11T02:03:44.308Z,0
2023-02-11T02:08:44.358Z,0
2023-02-11T02:13:45.797Z,0
2023-02-11T02:18:45.354Z,0
2023-02-11T02:23:41.559Z,0
2023-02-11T02:28:41.380Z,0
2023-02-11T02:33:40.192Z,0
2023-02-11T02:38:41.686Z,0
2023-02-11T02:43:40.292Z,0
2023-02-11T02:48:39.650Z,0
2023-02-11T02:53:39.496Z,0
2023-02-11T02:58:38.266Z,0
2023-02-11T03:00:02.683Z,0
2023-02-11T03:04:58.541Z,0
2023-02-11T03:09:58.614Z,0
2023-02-11T03:14:57.860Z,0
2023-02-11T03:19:57.881Z,0
2023-02-11T03:24:55.513Z,0
2023-02-11T03:29:55.903Z,0
2023-02-11T03:34:54.753Z,0
2023-02-11T03:39:54.577Z,0
2023-02-11T03:44:54.315Z,0
2023-02-11T03:49:54.043Z,0
2023-02-11T03:54:54.045Z,0
2023-02-11T03:59:18.180Z,0
2023-02-11T04:04:16.261Z,0
2023-02-11T04:09:15.542Z,0
2023-02-11T04:14:15.753Z,0
2023-02-11T04:19:14.640Z,0
2023-02-11T04:24:14.379Z,0
2023-02-11T04:29:13.929Z,0
2023-02-11T04:34:14.255Z,0
2023-02-11T04:39:13.642Z,0
2023-02-11T04:44:14.883Z,0
2023-02-11T04:49:11.165Z,0
2023-02-11T04:54:11.543Z,0
2023-02-11T04:58:56.726Z,0
2023-02-11T05:03:57.335Z,0
2023-02-11T05:08:54.293Z,0
2023-02-11T05:13:54.631Z,0
2023-02-11T05:18:55.375Z,0
2023-02-11T05:23:53.006Z,0
2023-02-11T05:28:53.171Z,0
2023-02-11T05:33:52.845Z,0
2023-02-11T05:38:52.451Z,0
2023-02-11T05:43:51.811Z,0
2023-02-11T05:48:49.561Z,0
2023-02-11T05:53:49.107Z,0
2023-02-11T05:58:48.679Z,0
2023-02-11T06:03:48.586Z,0
2023-02-11T06:08:47.805Z,0
2023-02-11T06:13:47.505Z,0
2023-02-11T06:18:47.348Z,0
2023-02-11T06:23:47.043Z,0
2023-02-11T06:28:48.769Z,0
2023-02-11T06:33:45.215Z,0
2023-02-11T06:38:45.439Z,0
2023-02-11T06:43:44.159Z,0
2023-02-11T06:48:47.392Z,0
2023-02-11T06:53:41.362Z,0
2023-02-11T06:58:41.181Z,0
2023-02-11T07:03:40.525Z,0.01
2023-02-11T07:08:40.329Z,0.01
2023-02-11T07:13:38.143Z,0.01
2023-02-11T07:18:38.464Z,0.02
2023-02-11T07:23:37.530Z,0.02
2023-02-11T07:28:37.825Z,0.03
2023-02-11T07:33:35.137Z,0.03
2023-02-11T07:38:35.160Z,0.04
2023-02-11T07:43:34.540Z,0.04
2023-02-11T07:48:34.330Z,0.05
2023-02-11T07:53:34.506Z,0.06
2023-02-11T07:58:34.459Z,0.07
2023-02-11T07:59:54.813Z,0.07
2023-02-11T08:04:54.868Z,0.08
2023-02-11T08:09:55.756Z,0.09
2023-02-11T08:14:52.003Z,0.09
2023-02-11T08:19:52.533Z,0.1
2023-02-11T08:24:55.005Z,0.11
2023-02-11T08:29:51.071Z,0.12
2023-02-11T08:34:48.444Z,0.12
2023-02-11T08:39:48.807Z,0.14
2023-02-11T08:44:47.688Z,0.15
2023-02-11T08:49:49.777Z,0.16
2023-02-11T08:54:45.243Z,0.16
2023-02-11T08:59:15.376Z,0.16
2023-02-11T09:04:15.250Z,0.16
2023-02-11T09:09:15.116Z,0.17
2023-02-11T09:14:12.576Z,0.18
2023-02-11T09:19:13.050Z,0.2
2023-02-11T09:24:12.458Z,0.21
2023-02-11T09:29:11.889Z,0.22
2023-02-11T09:34:11.646Z,0.22
2023-02-11T09:39:11.190Z,0.23
2023-02-11T09:44:10.612Z,0.23
2023-02-11T09:49:09.966Z,0.26
2023-02-11T09:54:11.555Z,0.26
2023-02-11T09:58:55.023Z,0.27
2023-02-11T10:03:55.800Z,0.25
2023-02-11T10:08:54.757Z,0.25
2023-02-11T10:13:54.775Z,0.26
2023-02-11T10:18:52.785Z,0.3
2023-02-11T10:23:52.396Z,0.29
2023-02-11T10:28:53.762Z,0.28
2023-02-11T10:33:54.501Z,0.27
2023-02-11T10:39:11.904Z,0.33
2023-02-11T10:43:50.316Z,0.32
2023-02-11T10:48:49.730Z,0.33
2023-02-11T10:53:50.350Z,0.33
2023-02-11T10:58:48.183Z,0.38
2023-02-11T11:03:48.250Z,0.42
2023-02-11T11:08:47.540Z,0.41
2023-02-11T11:13:48.010Z,0.42
2023-02-11T11:18:46.950Z,0.42
2023-02-11T11:23:47.010Z,0.42
2023-02-11T11:28:47.314Z,0.43
2023-02-11T11:33:47.348Z,0.4
2023-02-11T11:38:48.710Z,0.42
2023-02-11T11:43:45.141Z,0.42
2023-02-11T11:48:45.126Z,0.42
2023-02-11T11:58:44.936Z,0.42
2023-02-11T12:03:42.200Z,0.42
2023-02-11T12:09:35.778Z,0.42
2023-02-11T12:13:41.403Z,0.41
2023-02-11T12:18:41.301Z,0.41
2023-02-11T12:23:41.782Z,0.4
2023-02-11T12:28:41.710Z,0.4
2023-02-11T12:33:43.556Z,0.39
2023-02-11T12:38:39.025Z,0.38
2023-02-11T12:43:39.064Z,0.38
2023-02-11T12:48:38.847Z,0.37
2023-02-11T12:53:37.990Z,0.36
2023-02-11T12:58:48.173Z,0.36
2023-02-11T12:59:56.380Z,0.36
2023-02-11T13:04:55.512Z,0.34
2023-02-11T13:09:55.278Z,0.34
2023-02-11T13:14:54.643Z,0.33
2023-02-11T13:19:54.614Z,0.33
2023-02-11T13:24:54.710Z,0.32
2023-02-11T13:29:54.213Z,0.28
2023-02-11T13:34:54.974Z,0.29
2023-02-11T13:39:51.353Z,0.28
2023-02-11T13:44:51.521Z,0.28
2023-02-11T13:49:50.626Z,0.26
2023-02-11T13:54:50.101Z,0.26
2023-02-11T13:59:14.044Z,0.26
2023-02-11T14:04:13.657Z,0.25
2023-02-11T14:09:13.357Z,0.23
2023-02-11T14:14:14.760Z,0.18
2023-02-11T14:19:10.128Z,0.17
2023-02-11T14:24:10.367Z,0.17
2023-02-11T14:29:10.539Z,0.17
2023-02-11T14:34:08.853Z,0.16
2023-02-11T14:39:06.113Z,0.14
2023-02-11T14:44:06.238Z,0.13
2023-02-11T14:49:04.867Z,0.13
2023-02-11T14:54:06.015Z,0.13
2023-02-11T14:58:50.331Z,0.12
2023-02-11T15:03:50.729Z,0.11
2023-02-11T15:08:49.413Z,0.09
2023-02-11T15:13:50.525Z,0.08
2023-02-11T15:18:47.697Z,0.07
2023-02-11T15:23:47.721Z,0.06
2023-02-11T15:28:46.963Z,0.05
2023-02-11T15:33:48.276Z,0.04
2023-02-11T15:38:44.494Z,0.03
2023-02-11T15:43:44.262Z,0.03
2023-02-11T15:48:44.133Z,0.02
2023-02-11T15:53:43.878Z,0.02
2023-02-11T15:58:41.331Z,0.01
2023-02-11T16:03:40.570Z,0.01
2023-02-11T16:08:39.604Z,0.01
2023-02-11T16:13:39.543Z,0.01
2023-02-11T16:28:38.944Z,0
2023-02-11T16:33:38.592Z,0
2023-02-11T16:38:39.113Z,0
2023-02-11T16:43:35.676Z,0
2023-02-11T16:48:35.474Z,0
2023-02-11T16:53:34.814Z,0
2023-02-11T16:58:33.743Z,0
2023-02-11T16:59:55.077Z,0
2023-02-11T17:04:55.286Z,0
2023-02-11T17:09:54.697Z,0
2023-02-11T17:14:55.287Z,0
2023-02-11T17:19:51.991Z,0
2023-02-11T17:24:51.678Z,0
2023-02-11T17:29:50.804Z,0
2023-02-11T17:34:51.288Z,0
2023-02-11T17:39:48.091Z,0
2023-02-11T17:44:48.482Z,0
2023-02-11T17:49:47.373Z,0
2023-02-11T17:54:47.203Z,0
2023-02-11T17:58:57.012Z,0
2023-02-11T18:03:58.988Z,0
2023-02-11T18:09:00.199Z,0
2023-02-11T18:13:55.935Z,0
2023-02-11T18:18:57.733Z,0
2023-02-11T18:23:53.787Z,0
2023-02-11T18:28:53.165Z,0
2023-02-11T18:33:52.967Z,0
2023-02-11T18:38:52.707Z,0
2023-02-11T18:43:52.344Z,0
2023-02-11T18:48:56.025Z,0
2023-02-11T18:53:52.008Z,0
2023-02-11T18:58:53.812Z,0
2023-02-11T19:03:49.187Z,0
2023-02-11T19:08:49.334Z,0
2023-02-11T19:13:48.901Z,0
2023-02-11T19:18:48.255Z,0
2023-02-11T19:23:45.779Z,0
2023-02-11T19:28:45.949Z,0
2023-02-11T19:33:44.947Z,0
2023-02-11T19:38:45.252Z,0
2023-02-11T19:43:44.598Z,0
2023-02-11T19:48:44.234Z,0
2023-02-11T19:53:44.544Z,0
2023-02-11T19:58:44.119Z,0
2023-02-11T20:03:45.317Z,0
2023-02-11T20:08:41.084Z,0
2023-02-11T20:13:41.411Z,0
2023-02-11T20:18:41.147Z,0
2023-02-11T20:23:39.852Z,0
2023-02-11T20:28:39.642Z,0
2023-02-11T20:33:39.947Z,0
2023-02-11T20:38:39.189Z,0
2023-02-11T20:43:40.731Z,0
2023-02-11T20:48:36.933Z,0
2023-02-11T20:53:36.884Z,0
2023-02-11T20:58:36.502Z,0
2023-02-11T20:59:58.419Z,0
2023-02-11T21:04:55.954Z,0
2023-02-11T21:09:55.678Z,0
2023-02-11T21:14:55.756Z,0
2023-02-11T21:19:54.884Z,0
2023-02-11T21:24:54.406Z,0
2023-02-11T21:29:57.735Z,0
2023-02-11T21:34:54.784Z,0
2023-02-11T21:39:54.274Z,0
2023-02-11T21:44:55.366Z,0
2023-02-11T21:49:52.732Z,0
2023-02-11T21:54:51.491Z,0
2023-02-11T21:59:15.213Z,0
2023-02-11T22:04:15.332Z,0
2023-02-11T22:09:14.482Z,0
2023-02-11T22:14:14.649Z,0
2023-02-11T22:19:14.239Z,0
2023-02-11T22:24:14.881Z,0
2023-02-11T22:29:10.974Z,0
2023-02-11T22:34:11.229Z,0
2023-02-11T22:39:10.446Z,0
2023-02-11T22:44:10.708Z,0
2023-02-11T22:49:07.644Z,0
2023-02-11T22:54:07.902Z,0
2023-02-11T22:58:54.417Z,0
2023-02-11T23:03:54.313Z,0
2023-02-11T23:08:53.535Z,0
2023-02-11T23:13:53.193Z,0
2023-02-11T23:18:51.994Z,0
2023-02-11T23:23:52.407Z,0
2023-02-11T23:28:49.485Z,0
2023-02-11T23:33:49.884Z,0
2023-02-11T23:38:48.891Z,0
2023-02-11T23:43:48.444Z,0
2023-02-11T23:48:47.569Z,0
2023-02-11T23:53:47.355Z,0
2023-02-11T23:58:47.357Z,0
